LPAZ Airport Information

Runway Information
Runway 04 Length 4345 ft width 148 ft
Elevation 282 ft Threshold 0 ft Heading 28
Runway 22 Length 4345 ft Width 148 ft
Elevation 299 ft Threshold 0 ft Heading 208
Runway 15 Length 6004 ft width 148 ft
Elevation 279 ft Threshold 0 ft Heading 136
Runway 33 Length 6004 ft Width 148 ft
Elevation 299 ft Threshold 0 ft Heading 316
Runway 18 Length 10000 ft width 197 ft
Elevation 283 ft Threshold 0 ft Heading 171
Runway 36 Length 10000 ft Width 197 ft
Elevation 283 ft Threshold 0 ft Heading 351
Airport Frequencies
Type A/G Name A/G Frequency 301.6 MHZ
Type A/G Name A/G Frequency 1130.9 MHZ
Type ACC Name CON Frequency 132.15 MHZ
Type APP Name APP Frequency 119 MHZ
Type RDO Name RDO Frequency 127.9 MHZ
Type TWR Name TWR Frequency 118.1 MHZ
Airport Navaids
Type NDB Name Santa Maria Frequency 323 KHZ
Type VOR-DME Name Santa Maria Frequency 113700 KHZ
Airport Weather Information & NOTAM
ADDS - METARS form results

(2055 UTC 22 February 2018)
 
METAR text: LPAZ 222030Z 13007KT 9999 FEW018 15/12 Q1006
Conditions at: LPAZ (SANTA MARIA ISLA, PT) observed 2030 UTC 22 February 2018
Temperature: 15.0°C (59°F)
Dewpoint: 12.0°C (54°F) [RH = 82%]
Pressure (altimeter): 29.70 inches Hg (1006.0 mb)
Winds: from the SE (130 degrees) at 8 MPH (7 knots; 3.6 m/s)
Visibility: 6 or more miles (10+ km)
Ceiling: at least 12,000 feet AGL
Clouds: few clouds at 1800 feet AGL
Weather: no significant weather observed at this time

METAR text: LPAZ 222000Z 12007KT 9999 FEW018 15/12 Q1005
Conditions at: LPAZ (SANTA MARIA ISLA, PT) observed 2000 UTC 22 February 2018
Temperature: 15.0°C (59°F)
Dewpoint: 12.0°C (54°F) [RH = 82%]
Pressure (altimeter): 29.68 inches Hg (1005.0 mb)
Winds: from the ESE (120 degrees) at 8 MPH (7 knots; 3.6 m/s)
Visibility: 6 or more miles (10+ km)
Ceiling: at least 12,000 feet AGL
Clouds: few clouds at 1800 feet AGL
Weather: no significant weather observed at this time